createdAt,value
2022-10-18T00:01:48.861Z,100154.53
2022-10-18T00:04:18.281Z,100163.28
2022-10-18T00:06:49.114Z,100161.44
2022-10-18T00:09:18.714Z,100152.28
2022-10-18T00:11:47.851Z,100150.59
2022-10-18T00:14:17.873Z,100138.75
2022-10-18T00:16:48.076Z,100139.97
2022-10-18T00:19:20.446Z,100133.13
2022-10-18T00:21:52.884Z,100130.25
2022-10-18T00:24:21.925Z,100131.13
2022-10-18T00:26:51.167Z,100127.03
2022-10-18T00:29:20.381Z,100125.41
2022-10-18T00:31:49.597Z,100119.78
2022-10-18T00:34:18.847Z,100124.19
2022-10-18T00:36:47.919Z,100130.19
2022-10-18T00:39:20.524Z,100105.31
2022-10-18T00:41:50.651Z,100085.06
2022-10-18T00:44:57.023Z,100077.75
2022-10-18T00:47:26.412Z,100080.84
2022-10-18T00:49:58.710Z,100079.94
2022-10-18T00:52:30.936Z,100081.44
2022-10-18T00:55:02.743Z,100073.72
2022-10-18T00:57:33.792Z,100083.75
2022-10-18T01:00:07.677Z,100070.41
2022-10-18T01:02:38.303Z,100068.88
2022-10-18T01:05:08.905Z,100067.44
2022-10-18T01:08:08.463Z,100067.91
2022-10-18T01:10:47.608Z,100067.59
2022-10-18T01:13:30.781Z,100056.97
2022-10-18T01:16:03.850Z,100060.31
2022-10-18T01:18:39.336Z,100056.63
2022-10-18T01:21:26.802Z,100068.94
2022-10-18T01:24:19.003Z,100066.41
2022-10-18T01:27:07.098Z,100067.53
2022-10-18T01:29:50.485Z,100083.63
2022-10-18T01:32:25.478Z,100070.56
2022-10-18T01:34:58.507Z,100077.28
2022-10-18T01:37:29.762Z,100073.69
2022-10-18T01:40:03.876Z,100070.63
2022-10-18T01:42:33.769Z,100068.63
2022-10-18T01:45:05.641Z,100065.94
2022-10-18T01:47:40.561Z,100064.91
2022-10-18T01:50:10.497Z,100053.81
2022-10-18T01:52:49.544Z,100044.56
2022-10-18T01:55:20.526Z,100038.94
2022-10-18T01:58:00.701Z,100040.19
2022-10-18T02:00:38.505Z,100042.34
2022-10-18T02:03:17.702Z,100032.31
2022-10-18T02:05:53.769Z,100033.84
2022-10-18T02:08:30.063Z,100036.34
2022-10-18T02:11:06.778Z,100033.75
2022-10-18T02:13:55.795Z,100026.56
2022-10-18T02:16:29.945Z,100028.91
2022-10-18T02:19:06.034Z,100018.22
2022-10-18T02:21:36.154Z,100017.06
2022-10-18T02:24:08.410Z,100027.44
2022-10-18T02:26:37.785Z,100020.13
2022-10-18T02:29:07.343Z,100021.66
2022-10-18T02:31:41.490Z,100006.44
2022-10-18T02:34:21.234Z,100011.31
2022-10-18T02:36:54.145Z,100012.84
2022-10-18T02:39:26.847Z,100011.63
2022-10-18T02:41:56.308Z,99996.97
2022-10-18T02:44:26.379Z,99987.84
2022-10-18T02:46:55.823Z,99983.88
2022-10-18T02:49:26.458Z,99987.84
2022-10-18T02:51:57.814Z,99986.47
2022-10-18T02:54:27.368Z,99978.38
2022-10-18T02:56:56.576Z,99982.50
2022-10-18T02:59:25.843Z,99972.59
2022-10-18T03:01:54.943Z,99970.75
2022-10-18T03:04:25.718Z,99951.22
2022-10-18T03:06:55.152Z,99957.78
2022-10-18T03:09:24.503Z,99944.06
2022-10-18T03:11:53.630Z,99947.44
2022-10-18T03:14:23.175Z,99946.94
2022-10-18T03:16:52.512Z,99939.63
2022-10-18T03:19:28.256Z,99930.16
2022-10-18T03:21:57.608Z,99932.31
2022-10-18T03:24:26.985Z,99926.50
2022-10-18T03:26:56.585Z,99931.03
2022-10-18T03:29:27.298Z,99919.75
2022-10-18T03:31:56.426Z,99920.06
2022-10-18T03:34:25.521Z,99925.09
2022-10-18T03:37:00.945Z,99918.38
2022-10-18T03:39:32.746Z,99912.25
2022-10-18T03:42:02.304Z,99895.31
2022-10-18T03:44:31.846Z,99893.50
2022-10-18T03:47:01.497Z,99893.53
2022-10-18T03:49:30.638Z,99889.22
2022-10-18T03:52:01.766Z,99888.91
2022-10-18T03:54:31.254Z,99891.94
2022-10-18T03:57:00.775Z,99884.50
2022-10-18T03:59:33.930Z,99880.69
2022-10-18T04:02:04.017Z,99881.03
2022-10-18T04:04:33.672Z,99854.84
2022-10-18T04:07:04.958Z,99845.56
2022-10-18T04:09:34.987Z,99844.31
2022-10-18T04:12:05.164Z,99835.63
2022-10-18T04:14:34.988Z,99838.22
2022-10-18T04:17:07.672Z,99835.00
2022-10-18T04:19:41.668Z,99835.31
2022-10-18T04:22:14.607Z,99823.72
2022-10-18T04:24:45.198Z,99832.59
2022-10-18T04:27:15.745Z,99827.41
2022-10-18T04:29:48.617Z,99827.41
2022-10-18T04:32:19.393Z,99831.50
2022-10-18T04:34:49.721Z,99833.03
2022-10-18T04:37:21.338Z,99824.66
2022-10-18T04:39:53.701Z,99822.53
2022-10-18T04:42:25.162Z,99831.66
2022-10-18T04:44:55.162Z,99823.88
2022-10-18T04:47:25.444Z,99826.47
2022-10-18T04:49:59.850Z,99823.72
2022-10-18T04:52:31.502Z,99819.44
2022-10-18T04:55:01.089Z,99809.19
2022-10-18T04:57:56.154Z,99808.72
2022-10-18T05:00:25.890Z,99812.69
2022-10-18T05:02:59.114Z,99806.25
2022-10-18T05:05:49.594Z,99798.53
2022-10-18T05:08:19.889Z,99789.16
2022-10-18T05:10:50.116Z,99781.63
2022-10-18T05:13:19.690Z,99786.97
2022-10-18T05:16:04.219Z,99783.47
2022-10-18T05:18:33.869Z,99774.03
2022-10-18T05:21:03.295Z,99776.81
2022-10-18T05:23:35.681Z,99778.09
2022-10-18T05:26:06.496Z,99774.25
2022-10-18T05:28:40.524Z,99787.47
2022-10-18T05:31:15.764Z,99782.63
2022-10-18T05:33:46.608Z,99780.44
2022-10-18T05:36:42.009Z,99776.53
2022-10-18T05:42:13.538Z,99785.31
2022-10-18T05:44:43.285Z,99792.66
2022-10-18T05:47:16.504Z,99783.47
2022-10-18T05:49:49.645Z,99779.19
2022-10-18T05:52:19.874Z,99785.84
2022-10-18T05:54:57.216Z,99794.84
2022-10-18T05:57:29.618Z,99798.03
2022-10-18T05:59:59.190Z,99797.69
2022-10-18T06:02:30.444Z,99786.44
2022-10-18T06:05:00.530Z,99787.66
2022-10-18T06:07:35.115Z,99786.16
2022-10-18T06:10:10.345Z,99785.47
2022-10-18T06:12:47.744Z,99771.88
2022-10-18T06:15:19.196Z,99780.84
2022-10-18T06:17:49.636Z,99755.44
2022-10-18T06:20:22.705Z,99757.47
2022-10-18T06:22:54.416Z,99755.72
2022-10-18T06:25:25.186Z,99748.97
2022-10-18T06:27:54.493Z,99736.97
2022-10-18T06:30:24.104Z,99734.75
2022-10-18T06:32:54.527Z,99734.06
2022-10-18T06:35:24.020Z,99733.63
2022-10-18T06:38:05.011Z,99723.84
2022-10-18T06:40:40.068Z,99717.38
2022-10-18T06:43:20.675Z,99710.03
2022-10-18T06:45:56.118Z,99692.97
2022-10-18T06:48:33.839Z,99677.97
2022-10-18T06:51:05.739Z,99669.69
2022-10-18T06:53:44.192Z,99660.69
2022-10-18T06:56:19.495Z,99646.84
2022-10-18T06:58:49.709Z,99641.66
2022-10-18T07:01:21.028Z,99641.81
2022-10-18T07:03:54.807Z,99620.47
2022-10-18T07:06:25.405Z,99592.06
2022-10-18T07:08:57.271Z,99587.84
2022-10-18T07:11:29.547Z,99581.75
2022-10-18T07:14:03.444Z,99600.59
2022-10-18T07:16:33.980Z,99596.44
2022-10-18T07:19:04.408Z,99599.53
2022-10-18T07:21:38.800Z,99557.53
2022-10-18T07:24:12.415Z,99559.09
2022-10-18T07:27:30.692Z,99566.53
2022-10-18T07:30:02.393Z,99559.91
2022-10-18T07:32:37.302Z,99519.13
2022-10-18T07:37:39.607Z,99526.78
2022-10-18T07:40:12.642Z,99515.72
2022-10-18T07:42:47.017Z,99505.53
2022-10-18T07:45:17.722Z,99506.75
2022-10-18T07:47:48.057Z,99499.34
2022-10-18T07:50:17.772Z,99474.28
2022-10-18T07:52:47.272Z,99465.09
2022-10-18T07:55:23.268Z,99452.72
2022-10-18T07:57:54.072Z,99437.53
2022-10-18T08:00:23.861Z,99419.78
2022-10-18T08:02:57.793Z,99406.00
2022-10-18T08:05:28.617Z,99384.47
2022-10-18T08:08:01.080Z,99366.97
2022-10-18T08:11:05.078Z,99359.69
2022-10-18T08:13:36.328Z,99355.31
2022-10-18T08:16:08.749Z,99349.97
2022-10-18T08:18:39.174Z,99338.03
2022-10-18T08:21:11.252Z,99327.91
2022-10-18T08:23:41.818Z,99318.81
2022-10-18T08:26:17.353Z,99309.44
2022-10-18T08:28:54.255Z,99306.44
2022-10-18T08:31:35.267Z,99286.06
2022-10-18T08:34:05.916Z,99262.69
2022-10-18T08:36:43.291Z,99233.09
2022-10-18T08:39:24.351Z,99221.41
2022-10-18T08:42:22.801Z,99200.22
2022-10-18T08:44:58.191Z,99171.03
2022-10-18T08:47:36.990Z,99150.44
2022-10-18T08:50:22.168Z,99116.69
2022-10-18T08:53:03.378Z,99119.16
2022-10-18T08:55:40.531Z,99116.56
2022-10-18T08:58:25.449Z,99105.91
2022-10-18T09:01:24.159Z,99087.38
2022-10-18T09:04:26.627Z,99026.53
2022-10-18T09:07:19.526Z,99010.59
2022-10-18T09:10:08.497Z,99043.53
2022-10-18T09:13:06.591Z,99037.97
2022-10-18T09:15:45.095Z,99008.38
2022-10-18T09:18:41.941Z,99061.31
2022-10-18T09:21:20.633Z,99060.53
2022-10-18T09:24:00.398Z,99066.22
2022-10-18T09:26:40.794Z,99070.13
2022-10-18T09:29:36.369Z,99059.06
2022-10-18T09:32:46.626Z,99077.88
2022-10-18T09:35:24.184Z,99067.78
2022-10-18T09:38:03.795Z,99048.31
2022-10-18T09:40:39.929Z,99018.19
2022-10-18T09:43:17.858Z,99027.56
2022-10-18T09:45:50.469Z,99021.84
2022-10-18T09:48:25.467Z,99019.50
2022-10-18T09:51:00.376Z,99016.72
2022-10-18T09:53:38.850Z,99011.63
2022-10-18T09:56:13.645Z,99005.00
2022-10-18T09:58:47.898Z,99000.81
2022-10-18T10:01:29.960Z,98985.91
2022-10-18T10:04:13.796Z,98975.19
2022-10-18T10:07:50.654Z,98968.34
2022-10-18T10:10:30.210Z,98964.38
2022-10-18T10:13:28.744Z,98954.75
2022-10-18T10:16:08.212Z,98949.84
2022-10-18T10:18:41.889Z,98952.63
2022-10-18T10:21:42.175Z,98939.59
2022-10-18T10:24:37.665Z,98928.28
2022-10-18T10:27:47.541Z,98917.91
2022-10-18T10:30:29.915Z,98909.56
2022-10-18T10:33:01.889Z,98899.75
2022-10-18T10:35:52.499Z,98892.88
2022-10-18T10:38:43.926Z,98888.81
2022-10-18T10:41:28.385Z,98877.16
2022-10-18T10:43:59.559Z,98866.31
2022-10-18T10:46:38.773Z,98875.13
2022-10-18T10:52:29.042Z,98864.88
2022-10-18T10:55:23.320Z,98844.44
2022-10-18T10:57:59.841Z,98846.84
2022-10-18T11:00:49.686Z,98851.41
2022-10-18T11:03:30.119Z,98839.28
2022-10-18T11:06:02.660Z,98837.81
2022-10-18T11:08:43.508Z,98832.94
2022-10-18T11:11:36.770Z,98829.44
2022-10-18T11:14:26.679Z,98819.38
2022-10-18T11:17:49.886Z,98809.31
2022-10-18T11:20:37.865Z,98806.19
2022-10-18T11:23:13.872Z,98795.97
2022-10-18T11:26:04.243Z,98794.84
2022-10-18T11:28:55.338Z,98802.78
2022-10-18T11:31:35.969Z,98806.59
2022-10-18T11:34:34.940Z,98802.16
2022-10-18T11:37:54.925Z,98808.38
2022-10-18T11:40:37.158Z,98801.69
2022-10-18T11:43:20.526Z,98800.22
2022-10-18T11:46:07.480Z,98798.63
2022-10-18T11:49:03.636Z,98795.28
2022-10-18T11:52:07.284Z,98792.38
2022-10-18T11:55:07.487Z,98786.72
2022-10-18T11:57:54.398Z,98795.97
2022-10-18T12:00:40.206Z,98794.63
2022-10-18T12:03:39.042Z,98793.81
2022-10-18T12:06:28.885Z,98796.41
2022-10-18T12:09:14.019Z,98795.72
2022-10-18T12:11:55.753Z,98792.53
2022-10-18T12:14:45.535Z,98789.81
2022-10-18T12:17:49.796Z,98779.19
2022-10-18T12:20:37.868Z,98774.47
2022-10-18T12:23:16.714Z,98779.09
2022-10-18T12:25:57.306Z,98784.84
2022-10-18T12:28:43.750Z,98791.50
2022-10-18T12:31:26.387Z,98776.47
2022-10-18T12:34:21.706Z,98783.34
2022-10-18T12:37:28.082Z,98787.16
2022-10-18T12:40:23.426Z,98780.47
2022-10-18T12:42:55.327Z,98786.09
2022-10-18T12:45:42.928Z,98791.03
2022-10-18T12:48:34.124Z,98778.41
2022-10-18T12:51:21.000Z,98792.47
2022-10-18T12:54:10.240Z,98782.06
2022-10-18T12:56:51.344Z,98773.22
2022-10-18T12:59:45.049Z,98776.22
2022-10-18T13:02:33.516Z,98772.22
2022-10-18T13:05:52.909Z,98781.03
2022-10-18T13:08:43.405Z,98783.03
2022-10-18T13:12:03.481Z,98786.03
2022-10-18T13:15:24.848Z,98772.47
2022-10-18T13:21:47.211Z,98793.13
2022-10-18T13:32:37.375Z,98794.31
2022-10-18T13:36:00.932Z,98791.81
2022-10-18T13:38:50.510Z,98800.84
2022-10-18T13:42:12.740Z,98807.50
2022-10-18T13:44:46.765Z,98797.75
2022-10-18T13:47:40.253Z,98796.63
2022-10-18T13:50:36.039Z,98818.94
2022-10-18T13:54:10.110Z,98807.56
2022-10-18T14:29:14.807Z,98850.19
2022-10-18T15:04:33.294Z,98865.31
2022-10-18T16:31:08.755Z,98993.41
2022-10-18T16:34:18.230Z,98998.38
2022-10-18T16:37:25.008Z,99004.63
2022-10-18T16:40:06.403Z,98987.81
2022-10-18T16:42:54.118Z,99001.25
2022-10-18T16:46:12.127Z,99013.28
2022-10-18T16:49:00.196Z,99029.06
2022-10-18T16:51:34.528Z,99007.56
2022-10-18T16:54:05.852Z,99016.63
2022-10-18T16:56:37.830Z,99040.97
2022-10-18T16:59:10.574Z,99048.31
2022-10-18T17:01:45.793Z,99065.22
2022-10-18T17:07:55.514Z,99062.44
2022-10-18T17:10:35.148Z,99065.22
2022-10-18T17:13:31.899Z,99080.91
2022-10-18T17:16:53.801Z,99071.22
2022-10-18T17:22:30.921Z,99085.16
2022-10-18T17:25:03.329Z,99076.19
2022-10-18T17:27:37.653Z,99081.91
2022-10-18T17:30:24.268Z,99073.72
2022-10-18T17:32:55.468Z,99077.41
2022-10-18T17:35:26.822Z,99084.13
2022-10-18T17:38:05.472Z,99070.88
2022-10-18T17:40:43.238Z,99080.69
2022-10-18T17:43:15.207Z,99084.19
2022-10-18T17:46:18.344Z,99072.47
2022-10-18T17:49:05.426Z,99070.16
2022-10-18T17:51:38.732Z,99074.47
2022-10-18T17:54:29.245Z,99087.66
2022-10-18T17:57:11.843Z,99081.75
2022-10-18T17:59:44.411Z,99075.69
2022-10-18T18:02:21.172Z,99076.59
2022-10-18T18:04:52.231Z,99082.88
2022-10-18T18:07:32.918Z,99103.66
2022-10-18T18:10:04.468Z,99092.22
2022-10-18T18:12:42.241Z,99110.06
2022-10-18T18:15:17.393Z,99110.22
2022-10-18T18:17:58.503Z,99100.59
2022-10-18T18:20:34.812Z,99097.47
2022-10-18T18:26:33.855Z,99089.06
2022-10-18T18:29:31.727Z,99097.56
2022-10-18T18:32:14.546Z,99107.06
2022-10-18T18:34:49.403Z,99114.09
2022-10-18T18:37:21.420Z,99111.63
2022-10-18T18:40:14.155Z,99118.25
2022-10-18T18:43:12.139Z,99116.81
2022-10-18T18:45:55.459Z,99115.81
2022-10-18T18:48:30.995Z,99111.13
2022-10-18T18:51:06.618Z,99122.25
2022-10-18T18:53:42.176Z,99128.97
2022-10-18T18:56:14.659Z,99114.19
2022-10-18T18:58:46.357Z,99118.34
2022-10-18T19:01:25.735Z,99107.72
2022-10-18T19:04:00.062Z,99115.25
2022-10-18T19:06:34.088Z,99110.56
2022-10-18T19:09:38.116Z,99112.16
2022-10-18T19:12:08.240Z,99109.81
2022-10-18T19:14:39.889Z,99108.00
2022-10-18T19:17:09.724Z,99106.28
2022-10-18T19:19:41.531Z,99093.44
2022-10-18T19:22:15.702Z,99091.88
2022-10-18T19:24:48.594Z,99095.59
2022-10-18T19:27:26.117Z,99109.44
2022-10-18T19:29:57.790Z,99117.72
2022-10-18T19:32:29.559Z,99138.94
2022-10-18T19:35:00.514Z,99146.44
2022-10-18T19:37:35.484Z,99143.09
2022-10-18T19:40:07.769Z,99119.00
2022-10-18T19:42:39.179Z,99124.97
2022-10-18T19:45:10.435Z,99122.88
2022-10-18T19:47:41.702Z,99127.56
2022-10-18T19:50:21.904Z,99129.59
2022-10-18T19:52:56.013Z,99132.88
2022-10-18T19:55:27.872Z,99115.75
2022-10-18T19:57:58.382Z,99114.69
2022-10-18T20:00:31.566Z,99120.50
2022-10-18T20:03:02.224Z,99116.75
2022-10-18T20:05:36.726Z,99121.13
2022-10-18T20:08:09.145Z,99110.47
2022-10-18T20:10:38.827Z,99106.81
2022-10-18T20:13:12.331Z,99103.81
2022-10-18T20:15:48.347Z,99117.88
2022-10-18T20:18:21.152Z,99108.81
2022-10-18T20:20:52.486Z,99127.75
2022-10-18T20:26:32.430Z,99109.13
2022-10-18T20:29:04.732Z,99123.53
2022-10-18T20:31:40.053Z,99108.09
2022-10-18T20:34:13.313Z,99103.81
2022-10-18T20:36:48.013Z,99095.00
2022-10-18T20:39:18.783Z,99097.06
2022-10-18T20:41:50.870Z,99095.09
2022-10-18T20:44:22.911Z,99090.69
2022-10-18T20:46:52.179Z,99093.78
2022-10-18T20:49:21.347Z,99086.50
2022-10-18T20:51:50.537Z,99093.50
2022-10-18T20:54:21.274Z,99093.97
2022-10-18T20:56:50.407Z,99097.84
2022-10-18T20:59:19.596Z,99095.31
2022-10-18T21:01:48.725Z,99096.41
2022-10-18T21:04:18.007Z,99101.75
2022-10-18T21:06:47.256Z,99097.34
2022-10-18T21:09:18.832Z,99094.28
2022-10-18T21:11:51.419Z,99087.63
2022-10-18T21:14:22.160Z,99085.25
2022-10-18T21:16:58.037Z,99086.50
2022-10-18T21:19:29.079Z,99088.41
2022-10-18T21:21:59.055Z,99089.03
2022-10-18T21:24:30.054Z,99101.06
2022-10-18T21:27:00.829Z,99093.09
2022-10-18T21:29:31.108Z,99092.59
2022-10-18T21:32:01.010Z,99088.59
2022-10-18T21:34:30.184Z,99086.34
2022-10-18T21:36:59.382Z,99080.16
2022-10-18T21:39:30.178Z,99072.38
2022-10-18T21:42:00.825Z,99069.81
2022-10-18T21:44:30.025Z,99072.34
2022-10-18T21:46:59.194Z,99076.38
2022-10-18T21:49:29.695Z,99080.16
2022-10-18T21:52:05.573Z,99080.16
2022-10-18T21:54:34.762Z,99076.66
2022-10-18T21:57:05.544Z,99073.72
2022-10-18T21:59:45.033Z,99078.91
2022-10-18T22:02:16.768Z,99077.06
2022-10-18T22:04:47.047Z,99085.78
2022-10-18T22:07:16.174Z,99083.59
2022-10-18T22:09:46.318Z,99070.91
2022-10-18T22:12:26.149Z,99069.34
2022-10-18T22:14:55.276Z,99070.53
2022-10-18T22:17:24.692Z,99067.94
2022-10-18T22:19:59.403Z,99063.16
2022-10-18T22:22:29.358Z,99067.56
2022-10-18T22:24:58.619Z,99064.34
2022-10-18T22:27:31.460Z,99058.81
2022-10-18T22:30:01.885Z,99054.19
2022-10-18T22:32:33.221Z,99052.66
2022-10-18T22:35:07.081Z,99049.03
2022-10-18T22:37:36.825Z,99043.63
2022-10-18T22:40:11.121Z,99040.78
2022-10-18T22:42:44.200Z,99039.22
2022-10-18T22:45:13.434Z,99041.69
2022-10-18T22:47:42.766Z,99033.13
2022-10-18T22:50:12.520Z,99032.22
2022-10-18T22:52:44.158Z,99031.19
2022-10-18T22:55:13.416Z,99030.28
2022-10-18T22:57:44.265Z,99029.53
2022-10-18T23:00:15.484Z,99031.44
2022-10-18T23:02:44.795Z,99030.03
2022-10-18T23:05:13.948Z,99033.00
2022-10-18T23:07:42.925Z,99013.44
2022-10-18T23:10:12.089Z,99007.50
2022-10-18T23:12:41.511Z,99003.88
2022-10-18T23:15:12.468Z,99007.38
2022-10-18T23:17:41.557Z,98993.63
2022-10-18T23:20:13.215Z,98986.78
2022-10-18T23:22:42.187Z,98978.34
2022-10-18T23:25:11.490Z,98996.34
2022-10-18T23:27:40.955Z,98998.28
2022-10-18T23:30:12.893Z,98980.13
2022-10-18T23:32:42.192Z,98969.78
2022-10-18T23:35:11.484Z,98972.34
2022-10-18T23:37:40.486Z,98972.25
2022-10-18T23:40:10.969Z,98959.03
2022-10-18T23:42:40.747Z,98951.13
2022-10-18T23:45:12.070Z,98959.69
2022-10-18T23:47:41.315Z,98951.25
2022-10-18T23:50:11.189Z,98943.63
2022-10-18T23:52:40.257Z,98943.84
2022-10-18T23:55:10.040Z,98945.44
2022-10-18T23:57:38.964Z,98933.00
